Time;durP1;ratioP1;P1;durP2;ratioP2;P2;SDS_P1;SDS_P2;PMS_P1;PMS_P2;Temp;Humidity;BMP_temperature;BMP_pressure;BME280_temperature;BME280_humidity;BME280_pressure;Samples;Min_cycle;Max_cycle;Signal;HPM_P1;HPM_P2
2022/01/13 00:00:12;;;;;;;120.53;42.78;;;5.00;99.90;;;;;;5051980;28;20048;-74
2022/01/13 00:02:38;;;;;;;111.78;41.58;;;5.10;99.90;;;;;;5052458;28;20472;-75
2022/01/13 00:05:04;;;;;;;101.07;37.28;;;5.10;99.90;;;;;;5052013;28;20049;-75
2022/01/13 00:07:30;;;;;;;122.88;39.17;;;5.00;99.90;;;;;;5051778;28;20061;-75
2022/01/13 00:09:56;;;;;;;110.72;38.17;;;4.90;99.90;;;;;;5052454;28;20056;-75
2022/01/13 00:12:25;;;;;;;108.35;38.22;;;4.80;99.90;;;;;;5052037;28;20397;-74
2022/01/13 00:19:56;;;;;;;103.22;39.40;;;4.90;99.90;;;;;;5052371;28;20060;-75
2022/01/13 00:25:17;;;;;;;113.55;37.83;;;4.80;99.90;;;;;;5045902;28;20036;-75
2022/01/13 00:27:49;;;;;;;125.47;40.95;;;4.80;99.90;;;;;;5049160;28;20029;-75
2022/01/13 00:30:17;;;;;;;109.45;40.45;;;4.70;99.90;;;;;;5051834;28;20033;-75
2022/01/13 00:32:44;;;;;;;180.43;41.63;;;4.70;99.90;;;;;;5051298;28;20033;-75
2022/01/13 00:35:10;;;;;;;108.95;39.25;;;4.80;99.90;;;;;;5052202;28;20504;-75
2022/01/13 00:37:37;;;;;;;125.70;38.80;;;4.80;99.90;;;;;;5043964;28;20048;-75
2022/01/13 00:40:05;;;;;;;124.35;39.28;;;4.80;99.90;;;;;;5052249;28;20505;-75
2022/01/13 00:42:30;;;;;;;99.07;38.15;;;4.80;99.90;;;;;;5060954;28;20060;-75
2022/01/13 00:44:56;;;;;;;127.25;38.08;;;4.80;99.90;;;;;;5051548;28;20110;-75
2022/01/13 00:47:21;;;;;;;199.93;40.63;;;4.80;99.90;;;;;;5051690;28;20461;-75
2022/01/13 00:49:47;;;;;;;180.43;39.63;;;4.90;99.90;;;;;;5051756;28;20040;-75
2022/01/13 00:52:13;;;;;;;127.30;37.40;;;4.90;99.90;;;;;;5051111;28;20025;-75
2022/01/13 00:54:40;;;;;;;119.85;38.97;;;4.90;99.90;;;;;;5051004;28;20033;-75
2022/01/13 00:57:07;;;;;;;119.15;39.05;;;4.80;99.90;;;;;;5051387;28;20393;-75
2022/01/13 00:59:33;;;;;;;109.97;38.47;;;4.80;99.90;;;;;;5051617;28;20045;-75
2022/01/13 01:01:58;;;;;;;118.63;39.92;;;4.90;99.90;;;;;;5051782;28;20028;-76
2022/01/13 01:04:24;;;;;;;128.93;39.67;;;4.90;99.90;;;;;;5041823;28;20029;-74
2022/01/13 01:06:50;;;;;;;270.45;39.45;;;4.90;99.90;;;;;;5050631;28;20025;-74
2022/01/13 01:09:22;;;;;;;187.07;40.75;;;4.90;99.90;;;;;;5051280;28;20629;-75
2022/01/13 01:11:50;;;;;;;115.10;40.10;;;4.90;99.90;;;;;;5051775;28;20021;-74
2022/01/13 01:14:17;;;;;;;121.18;40.15;;;4.80;99.90;;;;;;5051190;28;20478;-74
2022/01/13 01:16:44;;;;;;;118.40;38.13;;;4.90;99.90;;;;;;5051497;28;20036;-74
2022/01/13 01:19:11;;;;;;;144.05;38.50;;;4.90;99.90;;;;;;5051381;28;20040;-74
2022/01/13 01:24:31;;;;;;;178.50;40.05;;;4.90;99.90;;;;;;5051398;28;20481;-75
2022/01/13 01:27:03;;;;;;;115.72;38.03;;;4.90;99.90;;;;;;5051162;28;20040;-74
2022/01/13 01:29:44;;;;;;;170.13;37.58;;;4.90;99.90;;;;;;5048824;28;20373;-74
2022/01/13 01:32:14;;;;;;;137.15;38.78;;;4.90;99.90;;;;;;5051455;28;20033;-75
2022/01/13 01:37:13;;;;;;;110.53;35.05;;;4.90;99.90;;;;;;5051425;28;20100;-75
2022/01/13 01:39:39;;;;;;;102.63;37.13;;;4.90;99.90;;;;;;5060153;28;20029;-75
2022/01/13 01:42:05;;;;;;;112.88;37.47;;;4.90;99.90;;;;;;5056267;28;20164;-75
2022/01/13 01:44:36;;;;;;;101.50;35.58;;;4.90;99.90;;;;;;5054458;28;20033;-75
2022/01/13 01:47:03;;;;;;;145.05;35.60;;;4.90;99.90;;;;;;5050873;28;20029;-75
2022/01/13 01:49:31;;;;;;;100.78;33.58;;;4.80;99.90;;;;;;5036613;28;20037;-75
2022/01/13 01:51:59;;;;;;;112.15;34.22;;;4.80;99.90;;;;;;5017004;28;20080;-74
2022/01/13 01:54:26;;;;;;;145.10;34.20;;;4.80;99.90;;;;;;5023598;28;20034;-73
2022/01/13 01:56:52;;;;;;;149.73;33.20;;;4.80;99.90;;;;;;5032490;28;20103;-74
2022/01/13 01:59:21;;;;;;;86.35;32.38;;;4.80;99.90;;;;;;5026851;28;20041;-73
2022/01/13 02:01:52;;;;;;;103.25;31.98;;;4.80;99.90;;;;;;5024919;28;20049;-73
2022/01/13 02:04:19;;;;;;;105.07;34.53;;;4.80;99.90;;;;;;5027675;28;20447;-73
2022/01/13 02:06:45;;;;;;;113.40;33.70;;;4.80;99.90;;;;;;5051047;28;20025;-73
2022/01/13 02:09:15;;;;;;;88.72;31.85;;;4.80;99.90;;;;;;5047509;28;20041;-74
2022/01/13 02:11:44;;;;;;;103.53;30.88;;;4.80;99.90;;;;;;5054621;28;20032;-74
2022/01/13 02:17:12;;;;;;;85.88;29.60;;;4.90;99.90;;;;;;5053341;28;20017;-74
2022/01/13 02:19:41;;;;;;;124.18;29.85;;;4.80;99.90;;;;;;5053842;28;20029;-74
2022/01/13 02:22:08;;;;;;;92.68;30.73;;;4.80;99.90;;;;;;5053907;28;20747;-75
2022/01/13 02:24:34;;;;;;;130.70;31.45;;;4.80;99.90;;;;;;5048842;28;20115;-74
2022/01/13 02:27:01;;;;;;;245.43;35.00;;;4.70;99.90;;;;;;5053939;28;20029;-74
2022/01/13 02:29:27;;;;;;;112.28;29.77;;;4.70;99.90;;;;;;5051058;28;20029;-74
2022/01/13 02:31:53;;;;;;;118.32;30.55;;;4.60;99.90;;;;;;5054112;28;20115;-74
2022/01/13 02:34:19;;;;;;;104.85;29.15;;;4.60;99.90;;;;;;5053830;28;20080;-74
2022/01/13 02:36:46;;;;;;;181.20;31.05;;;4.60;99.90;;;;;;5056654;28;20033;-75
2022/01/13 02:39:12;;;;;;;110.15;30.63;;;4.60;99.90;;;;;;5058012;28;20523;-74
2022/01/13 02:41:38;;;;;;;285.77;32.10;;;4.60;99.90;;;;;;5054083;28;20021;-75
2022/01/13 02:44:11;;;;;;;103.95;30.08;;;4.60;99.90;;;;;;5053610;28;20037;-75
2022/01/13 02:49:11;;;;;;;87.22;31.40;;;4.70;99.90;;;;;;5053521;28;20074;-74
2022/01/13 02:51:38;;;;;;;106.03;29.23;;;4.70;99.90;;;;;;5050926;28;20067;-75
2022/01/13 02:54:05;;;;;;;108.00;30.50;;;4.80;99.90;;;;;;5053856;28;20437;-76
2022/01/13 02:56:32;;;;;;;100.05;29.25;;;4.80;99.90;;;;;;5053151;28;20057;-75
2022/01/13 02:58:58;;;;;;;104.60;27.75;;;4.90;99.90;;;;;;5053034;28;20037;-75
2022/01/13 03:01:24;;;;;;;95.82;26.98;;;4.90;99.90;;;;;;5053212;28;20037;-75
2022/01/13 03:03:51;;;;;;;73.53;25.63;;;4.90;99.90;;;;;;5053255;28;20094;-75
2022/01/13 03:06:28;;;;;;;214.25;28.45;;;4.90;99.90;;;;;;5047727;28;20032;-74
2022/01/13 03:08:54;;;;;;;79.97;27.17;;;4.90;99.90;;;;;;5053372;28;20052;-75
2022/01/13 03:11:23;;;;;;;130.90;28.10;;;4.90;99.90;;;;;;5045704;28;20033;-74
2022/01/13 03:13:49;;;;;;;102.18;27.27;;;4.90;99.90;;;;;;5053436;28;20039;-75
2022/01/13 03:16:15;;;;;;;89.72;25.95;;;4.90;99.90;;;;;;5052693;28;20036;-75
2022/01/13 03:18:41;;;;;;;80.97;24.23;;;4.90;99.90;;;;;;5053535;28;20037;-74
2022/01/13 03:21:07;;;;;;;65.47;23.33;;;4.90;99.90;;;;;;5047662;28;20517;-74
2022/01/13 03:23:35;;;;;;;128.35;23.42;;;4.90;99.90;;;;;;5053045;28;20397;-75
2022/01/13 03:26:01;;;;;;;124.82;22.60;;;4.90;99.90;;;;;;5053068;28;20082;-74
2022/01/13 03:28:31;;;;;;;117.43;23.65;;;4.90;99.90;;;;;;5053033;28;20041;-73
2022/01/13 03:31:02;;;;;;;58.35;22.75;;;4.90;99.90;;;;;;5052743;28;20429;-74
2022/01/13 03:33:28;;;;;;;66.32;23.35;;;4.90;99.90;;;;;;5052892;28;20036;-74
2022/01/13 03:35:54;;;;;;;164.90;23.92;;;4.90;99.90;;;;;;5058193;28;20044;-75
2022/01/13 03:38:20;;;;;;;96.15;25.05;;;4.90;99.90;;;;;;5053359;28;20037;-74
2022/01/13 03:40:46;;;;;;;78.30;25.13;;;4.90;99.90;;;;;;5052043;28;20525;-74
2022/01/13 03:43:14;;;;;;;71.85;25.30;;;4.90;99.90;;;;;;5052265;28;20029;-74
2022/01/13 03:45:39;;;;;;;69.50;22.73;;;4.90;99.90;;;;;;5052361;28;20562;-75
2022/01/13 03:48:07;;;;;;;118.30;24.00;;;4.90;99.90;;;;;;5052375;28;20021;-75
2022/01/13 03:50:33;;;;;;;120.95;24.13;;;4.90;99.90;;;;;;5052657;28;20086;-75
2022/01/13 03:53:01;;;;;;;171.57;23.23;;;4.90;99.90;;;;;;5052221;28;20482;-75
2022/01/13 03:55:36;;;;;;;122.63;24.13;;;4.90;99.90;;;;;;5052528;28;20032;-73
2022/01/13 03:58:39;;;;;;;120.82;24.13;;;4.90;99.90;;;;;;5051885;28;20036;-74
2022/01/13 04:01:30;;;;;;;187.20;24.77;;;4.90;99.90;;;;;;5043614;28;20049;-74
2022/01/13 04:03:55;;;;;;;156.68;23.80;;;4.90;99.90;;;;;;5047656;28;20480;-73
2022/01/13 04:06:21;;;;;;;115.95;25.38;;;4.80;99.90;;;;;;5052209;28;20078;-74
2022/01/13 04:08:48;;;;;;;84.90;23.55;;;4.80;99.90;;;;;;5051632;28;20472;-74
2022/01/13 04:11:29;;;;;;;100.55;24.30;;;4.80;99.90;;;;;;5052908;28;20099;-74
2022/01/13 04:13:57;;;;;;;61.53;23.65;;;4.80;99.90;;;;;;5051695;28;20021;-74
2022/01/13 04:16:27;;;;;;;145.82;23.95;;;4.80;99.90;;;;;;5052104;28;20408;-74
2022/01/13 04:18:58;;;;;;;102.75;25.25;;;4.80;99.90;;;;;;5052511;28;20025;-74
2022/01/13 04:21:24;;;;;;;88.03;23.48;;;4.70;99.90;;;;;;5052191;28;20112;-74
2022/01/13 04:23:50;;;;;;;111.03;24.42;;;4.70;99.90;;;;;;5045806;28;20068;-74
2022/01/13 04:26:19;;;;;;;193.30;26.15;;;4.70;99.90;;;;;;5047046;28;20488;-74
2022/01/13 04:28:46;;;;;;;93.40;25.25;;;4.70;99.90;;;;;;5051871;28;20032;-75
2022/01/13 04:31:12;;;;;;;96.35;25.17;;;4.70;99.90;;;;;;5052635;28;20025;-74
2022/01/13 04:33:38;;;;;;;182.55;26.45;;;4.70;99.90;;;;;;5055093;28;20028;-74
2022/01/13 04:36:06;;;;;;;79.78;24.05;;;4.70;99.90;;;;;;5046542;28;20037;-74
2022/01/13 04:38:32;;;;;;;160.27;24.58;;;4.70;99.90;;;;;;5027003;28;20044;-74
2022/01/13 04:41:01;;;;;;;92.10;24.48;;;4.70;99.90;;;;;;5027227;28;20492;-74
2022/01/13 04:43:30;;;;;;;148.07;24.95;;;4.70;99.90;;;;;;5029681;28;20029;-74
2022/01/13 04:45:56;;;;;;;99.68;25.33;;;4.60;99.90;;;;;;5046779;28;20037;-75
2022/01/13 04:48:22;;;;;;;143.48;24.92;;;4.60;99.90;;;;;;5051728;28;20041;-74
2022/01/13 04:50:48;;;;;;;153.60;25.88;;;4.60;99.90;;;;;;5051428;28;20379;-74
2022/01/13 04:53:14;;;;;;;141.63;25.65;;;4.60;99.90;;;;;;5051608;28;20044;-74
2022/01/13 04:55:49;;;;;;;131.00;25.33;;;4.50;99.90;;;;;;5051840;28;20029;-75
2022/01/13 04:58:15;;;;;;;230.07;27.30;;;4.50;99.90;;;;;;5051268;28;20388;-74
2022/01/13 05:00:40;;;;;;;121.68;25.27;;;4.50;99.90;;;;;;5051267;28;20041;-74
2022/01/13 05:03:06;;;;;;;122.38;24.67;;;4.60;99.90;;;;;;5051869;28;20025;-75
2022/01/13 05:05:31;;;;;;;132.55;26.77;;;4.60;99.90;;;;;;5051156;28;20419;-75
2022/01/13 05:07:57;;;;;;;133.82;26.15;;;4.60;99.90;;;;;;5051572;28;20058;-75
2022/01/13 05:10:23;;;;;;;95.00;24.60;;;4.60;99.90;;;;;;5052083;28;20116;-75
2022/01/13 05:12:54;;;;;;;158.68;24.65;;;4.60;99.90;;;;;;5037276;28;20033;-75
2022/01/13 05:15:27;;;;;;;105.15;25.25;;;4.50;99.90;;;;;;5053763;28;20029;-75
2022/01/13 05:18:11;;;;;;;;;;;4.50;99.90;;;;;;5055686;28;20029;-75
2022/01/13 05:20:45;;;;;;;103.10;23.77;;;4.40;99.90;;;;;;5055259;28;19999;-75
2022/01/13 05:23:12;;;;;;;122.68;24.40;;;4.40;99.90;;;;;;5055202;28;20040;-76
2022/01/13 05:25:39;;;;;;;128.55;25.42;;;4.40;99.90;;;;;;5054895;28;20021;-76
2022/01/13 05:28:05;;;;;;;207.18;25.80;;;4.50;99.90;;;;;;5055354;28;20089;-75
2022/01/13 05:30:30;;;;;;;305.23;27.15;;;4.40;99.90;;;;;;5056561;28;20470;-76
2022/01/13 05:32:56;;;;;;;85.10;24.90;;;4.50;99.90;;;;;;5055596;28;20028;-75
2022/01/13 05:35:23;;;;;;;78.75;24.83;;;4.40;99.90;;;;;;5054757;28;20021;-75
2022/01/13 05:37:49;;;;;;;66.95;23.67;;;4.40;99.90;;;;;;5055070;28;20111;-75
2022/01/13 05:40:15;;;;;;;90.80;24.13;;;4.40;99.90;;;;;;5055128;28;20492;-74
2022/01/13 05:42:40;;;;;;;94.35;22.80;;;4.40;99.90;;;;;;5055200;28;20018;-74
2022/01/13 05:45:14;;;;;;;145.52;26.02;;;4.40;99.90;;;;;;5054802;28;20035;-75
2022/01/13 05:47:41;;;;;;;163.65;23.65;;;4.40;99.90;;;;;;5054321;28;20025;-75
2022/01/13 05:50:08;;;;;;;81.45;23.40;;;4.40;99.90;;;;;;5054428;28;20102;-74
2022/01/13 05:52:34;;;;;;;58.15;21.30;;;4.40;99.90;;;;;;5055007;28;20096;-75
2022/01/13 05:54:59;;;;;;;91.82;23.13;;;4.40;99.90;;;;;;5054321;28;20433;-74
2022/01/13 05:57:25;;;;;;;141.30;22.80;;;4.40;99.90;;;;;;5054567;28;20021;-75
2022/01/13 05:59:51;;;;;;;64.78;21.40;;;4.40;99.90;;;;;;5054298;28;20072;-75
2022/01/13 06:02:16;;;;;;;76.63;22.30;;;4.50;99.90;;;;;;5054122;28;20028;-75
2022/01/13 06:04:42;;;;;;;112.47;24.05;;;4.40;99.90;;;;;;5054612;28;20059;-75
2022/01/13 06:07:07;;;;;;;76.78;20.20;;;4.40;99.90;;;;;;5053835;28;20028;-75
2022/01/13 06:09:33;;;;;;;185.00;23.08;;;4.30;99.90;;;;;;5054920;28;20040;-75
2022/01/13 06:12:02;;;;;;;95.47;22.55;;;4.30;99.90;;;;;;5054452;28;20029;-74
2022/01/13 06:14:27;;;;;;;118.10;21.67;;;4.30;99.90;;;;;;5054796;28;20079;-77
2022/01/13 06:16:53;;;;;;;70.40;20.83;;;4.30;99.90;;;;;;5054475;28;20033;-80
2022/01/13 06:19:19;;;;;;;98.22;22.13;;;4.30;99.90;;;;;;5054397;28;20485;-75
2022/01/13 06:21:46;;;;;;;70.10;21.15;;;4.30;99.90;;;;;;5053938;28;20032;-76
2022/01/13 06:24:11;;;;;;;115.55;21.80;;;4.30;99.90;;;;;;5054188;28;20025;-76
2022/01/13 06:26:37;;;;;;;141.15;22.45;;;4.30;99.90;;;;;;5053166;28;20373;-75
2022/01/13 06:29:03;;;;;;;124.55;21.67;;;4.30;99.90;;;;;;5053868;28;20037;-82
2022/01/13 06:31:28;;;;;;;108.60;21.52;;;4.30;99.90;;;;;;5048479;28;20067;-78
2022/01/13 06:33:54;;;;;;;122.13;22.52;;;4.40;99.90;;;;;;5053762;28;20031;-77
2022/01/13 06:36:20;;;;;;;72.93;21.70;;;4.30;99.90;;;;;;5053538;28;20116;-78
2022/01/13 06:38:48;;;;;;;60.78;21.40;;;4.40;99.90;;;;;;5051139;28;20029;-78
2022/01/13 06:41:15;;;;;;;82.05;22.15;;;4.40;99.90;;;;;;5053774;28;20032;-78
2022/01/13 06:43:40;;;;;;;111.20;21.27;;;4.50;99.90;;;;;;5053060;28;20392;-77
2022/01/13 06:46:06;;;;;;;74.35;19.98;;;4.50;99.90;;;;;;5053608;28;20021;-78
2022/01/13 06:48:32;;;;;;;55.00;19.25;;;4.50;99.90;;;;;;5053779;28;20388;-78
2022/01/13 06:50:58;;;;;;;83.85;20.17;;;4.60;99.90;;;;;;5053279;28;20021;-77
2022/01/13 06:53:24;;;;;;;57.97;21.08;;;4.70;99.90;;;;;;5051844;28;20032;-77
2022/01/13 06:55:51;;;;;;;96.60;22.23;;;4.80;99.90;;;;;;5051241;28;20079;-78
2022/01/13 06:58:17;;;;;;;81.30;20.73;;;4.80;99.90;;;;;;5051187;28;20025;-77
2022/01/13 07:00:43;;;;;;;61.72;21.67;;;4.70;99.90;;;;;;5047046;28;20051;-79
2022/01/13 07:03:09;;;;;;;71.85;22.27;;;4.70;99.90;;;;;;5052949;28;20539;-79
2022/01/13 07:05:35;;;;;;;63.25;21.83;;;4.70;99.90;;;;;;5053124;28;20025;-78
2022/01/13 07:08:02;;;;;;;65.28;20.48;;;4.70;99.90;;;;;;5052592;28;20039;-78
2022/01/13 07:10:27;;;;;;;164.43;22.20;;;4.70;99.90;;;;;;5053366;28;20025;-76
2022/01/13 07:12:53;;;;;;;61.85;20.83;;;4.80;99.90;;;;;;5046943;28;20026;-78
2022/01/13 07:15:18;;;;;;;61.75;20.02;;;4.80;99.90;;;;;;5050376;28;20071;-80
2022/01/13 07:17:45;;;;;;;67.90;21.00;;;4.80;99.90;;;;;;5041060;28;20032;-79
2022/01/13 07:20:11;;;;;;;48.10;20.45;;;4.80;99.90;;;;;;5048010;28;20043;-78
2022/01/13 07:22:38;;;;;;;54.55;21.38;;;4.90;99.90;;;;;;5052474;28;20411;-74
2022/01/13 07:25:06;;;;;;;60.25;21.48;;;4.90;99.90;;;;;;5052522;28;20079;-74
2022/01/13 07:27:31;;;;;;;78.15;21.30;;;4.90;99.90;;;;;;5052158;28;20082;-74
2022/01/13 07:29:57;;;;;;;78.38;21.17;;;4.90;99.90;;;;;;5047757;28;20033;-75
2022/01/13 07:32:23;;;;;;;47.42;19.52;;;4.80;99.90;;;;;;5016521;28;20022;-73
2022/01/13 07:34:48;;;;;;;63.55;19.58;;;4.90;99.90;;;;;;5019547;28;20030;-79
2022/01/13 07:37:14;;;;;;;74.20;21.20;;;4.90;99.90;;;;;;5022116;28;20030;-78
2022/01/13 07:39:40;;;;;;;59.40;20.55;;;4.90;99.90;;;;;;5015760;28;20026;-76
2022/01/13 07:42:06;;;;;;;70.32;21.35;;;4.90;99.90;;;;;;5018541;28;20025;-78
2022/01/13 07:44:31;;;;;;;51.85;19.98;;;4.90;99.90;;;;;;5050647;28;20077;-78
2022/01/13 07:46:58;;;;;;;55.38;19.65;;;4.90;99.90;;;;;;5052991;28;20669;-78
2022/01/13 07:49:25;;;;;;;53.72;19.25;;;4.80;99.90;;;;;;5050440;28;20045;-75
2022/01/13 07:51:51;;;;;;;54.30;18.52;;;4.80;99.90;;;;;;5047216;28;20071;-75
2022/01/13 07:54:17;;;;;;;55.65;20.15;;;4.90;99.90;;;;;;5049570;28;20107;-75
2022/01/13 07:56:42;;;;;;;76.57;21.63;;;4.90;99.90;;;;;;5052331;28;20032;-73
2022/01/13 07:59:08;;;;;;;57.42;19.17;;;5.00;99.90;;;;;;5051581;28;20028;-76
2022/01/13 08:01:33;;;;;;;44.05;18.83;;;5.00;99.90;;;;;;5052514;28;20124;-75
2022/01/13 08:03:59;;;;;;;53.78;18.00;;;5.00;99.90;;;;;;5051705;28;20025;-75
2022/01/13 08:06:25;;;;;;;64.38;18.17;;;5.00;99.90;;;;;;5051704;28;20032;-73
2022/01/13 08:08:50;;;;;;;49.72;17.35;;;5.00;99.90;;;;;;5051749;28;20028;-73
2022/01/13 08:11:16;;;;;;;75.95;18.17;;;5.00;99.90;;;;;;5050552;28;20016;-75
2022/01/13 08:13:43;;;;;;;49.70;16.95;;;5.00;99.90;;;;;;5047062;28;20430;-75
2022/01/13 08:16:10;;;;;;;59.70;18.05;;;5.00;99.90;;;;;;5044217;28;20359;-75
2022/01/13 08:21:21;;;;;;;47.72;16.48;;;5.10;99.90;;;;;;5038411;28;20056;-75
2022/01/13 08:23:47;;;;;;;51.75;15.75;;;5.00;99.90;;;;;;5051622;28;20025;-76
2022/01/13 08:26:12;;;;;;;56.85;17.23;;;5.10;99.90;;;;;;5047304;28;20029;-74
2022/01/13 08:28:38;;;;;;;42.88;16.38;;;5.10;99.90;;;;;;5051429;28;20075;-74
2022/01/13 08:31:04;;;;;;;48.67;16.08;;;5.00;99.90;;;;;;5051445;28;20029;-77
2022/01/13 08:33:31;;;;;;;46.97;15.75;;;5.00;99.90;;;;;;5051768;28;20082;-74
2022/01/13 08:35:56;;;;;;;44.20;16.35;;;5.00;99.90;;;;;;5052123;28;20043;-73
2022/01/13 08:38:24;;;;;;;54.95;15.88;;;5.00;99.90;;;;;;5040814;28;20031;-74
2022/01/13 08:40:56;;;;;;;51.35;15.95;;;4.90;99.90;;;;;;5052071;28;20044;-74
2022/01/13 08:43:23;;;;;;;95.55;16.13;;;5.00;99.90;;;;;;5046634;28;20021;-77
2022/01/13 08:45:49;;;;;;;65.28;16.13;;;5.00;99.90;;;;;;5045470;28;20084;-75
2022/01/13 08:48:14;;;;;;;44.97;14.25;;;5.10;99.90;;;;;;5050671;28;20029;-76
2022/01/13 08:50:40;;;;;;;78.15;16.23;;;5.10;99.90;;;;;;5054329;28;20037;-76
2022/01/13 08:53:06;;;;;;;60.67;15.52;;;5.10;99.90;;;;;;5055800;28;20482;-75
2022/01/13 08:55:32;;;;;;;30.75;15.10;;;5.10;99.90;;;;;;5054997;28;20717;-76
2022/01/13 08:57:58;;;;;;;29.90;15.18;;;5.10;99.90;;;;;;5055601;28;20021;-76
2022/01/13 09:00:24;;;;;;;25.30;14.02;;;5.10;99.90;;;;;;5054843;28;20060;-78
2022/01/13 09:02:49;;;;;;;44.40;15.10;;;5.20;99.90;;;;;;5056421;28;20021;-77
2022/01/13 09:05:17;;;;;;;41.15;14.38;;;5.30;99.90;;;;;;5055322;28;20033;-79
2022/01/13 09:07:43;;;;;;;33.55;13.63;;;5.30;99.90;;;;;;5045851;28;20021;-77
2022/01/13 09:10:09;;;;;;;42.05;14.13;;;5.30;99.90;;;;;;5056410;28;20025;-78
2022/01/13 09:12:35;;;;;;;45.67;15.07;;;5.20;99.90;;;;;;5055030;28;20542;-79
2022/01/13 09:15:13;;;;;;;33.33;13.23;;;5.20;99.90;;;;;;5055190;28;20045;-78
2022/01/13 09:17:41;;;;;;;31.25;14.23;;;5.20;99.90;;;;;;5054428;28;20029;-78
2022/01/13 09:20:07;;;;;;;88.57;14.80;;;5.20;99.90;;;;;;5056181;28;20067;-79
2022/01/13 09:22:33;;;;;;;30.58;13.45;;;5.20;99.90;;;;;;5045295;28;20033;-77
2022/01/13 09:24:59;;;;;;;34.17;13.82;;;5.10;99.90;;;;;;5058792;28;20059;-80
2022/01/13 09:27:24;;;;;;;44.22;13.15;;;5.00;99.90;;;;;;5056339;28;20057;-76
2022/01/13 09:29:50;;;;;;;49.47;14.00;;;5.00;99.90;;;;;;5055602;28;20033;-85
2022/01/13 09:32:15;;;;;;;27.25;12.98;;;4.90;99.90;;;;;;5054781;28;20032;-78
2022/01/13 09:34:42;;;;;;;41.90;13.55;;;4.90;99.90;;;;;;5049911;28;20100;-79
2022/01/13 09:37:08;;;;;;;42.70;13.73;;;4.90;99.90;;;;;;5055290;28;20032;-73
2022/01/13 09:39:34;;;;;;;41.20;13.35;;;4.90;99.90;;;;;;5055195;28;20391;-77
2022/01/13 09:42:01;;;;;;;25.60;12.80;;;5.00;99.90;;;;;;5054692;28;20488;-78
2022/01/13 09:44:28;;;;;;;49.05;15.07;;;5.00;99.90;;;;;;5054889;28;20392;-77
2022/01/13 09:46:54;;;;;;;33.97;13.73;;;5.00;99.90;;;;;;5047599;28;20492;-77
2022/01/13 09:49:20;;;;;;;31.95;14.40;;;5.00;99.90;;;;;;5054481;28;20482;-78
2022/01/13 09:51:46;;;;;;;48.65;13.15;;;5.10;99.90;;;;;;5054711;28;20079;-77
2022/01/13 09:54:13;;;;;;;42.67;13.82;;;5.10;99.90;;;;;;5052060;28;20381;-76
2022/01/13 09:56:38;;;;;;;26.80;12.55;;;5.10;99.90;;;;;;5044885;28;20032;-79
2022/01/13 09:59:05;;;;;;;39.42;14.52;;;5.10;99.90;;;;;;5055036;28;20116;-78
2022/01/13 10:01:31;;;;;;;45.08;13.07;;;5.00;99.90;;;;;;5051713;28;20055;-78
2022/01/13 10:03:57;;;;;;;33.40;13.45;;;5.00;99.90;;;;;;5045534;28;20033;-78
2022/01/13 10:06:22;;;;;;;37.17;14.57;;;5.10;99.90;;;;;;5046031;28;20113;-77
2022/01/13 10:08:54;;;;;;;45.92;13.95;;;5.10;99.90;;;;;;5031486;28;20041;-75
2022/01/13 10:11:52;;;;;;;32.08;13.77;;;5.10;99.90;;;;;;5028700;28;20030;-76
2022/01/13 10:16:57;;;;;;;25.67;13.30;;;5.10;99.90;;;;;;5038899;28;20052;-75
2022/01/13 10:19:37;;;;;;;30.90;14.32;;;5.20;99.90;;;;;;5052437;28;20063;-78
2022/01/13 10:22:03;;;;;;;38.72;13.27;;;5.20;99.90;;;;;;5052466;28;20033;-75
2022/01/13 10:24:30;;;;;;;43.50;14.30;;;5.10;99.90;;;;;;5052934;28;20364;-86
2022/01/13 10:27:05;;;;;;;34.95;14.38;;;5.20;99.90;;;;;;5046318;28;20028;-80
2022/01/13 10:29:50;;;;;;;29.15;14.27;;;5.10;99.90;;;;;;5054369;28;20045;-77
2022/01/13 10:32:19;;;;;;;29.83;14.25;;;5.10;99.90;;;;;;5049905;28;20117;-77
2022/01/13 10:34:47;;;;;;;25.35;13.55;;;5.10;99.90;;;;;;5054361;28;20021;-73
2022/01/13 10:37:16;;;;;;;28.42;14.15;;;5.10;99.90;;;;;;5053937;28;20052;-74
2022/01/13 10:39:44;;;;;;;32.88;15.32;;;5.20;99.90;;;;;;5053640;28;20060;-78
2022/01/13 10:43:06;;;;;;;32.80;14.50;;;5.20;99.90;;;;;;5053590;28;20017;-75
2022/01/13 10:44:59;;;;;;;63.95;15.82;;;5.20;99.90;;;;;;5052721;28;20041;-76
2022/01/13 10:47:27;;;;;;;30.83;14.70;;;5.20;99.90;;;;;;5053005;28;20082;-76
2022/01/13 10:49:58;;;;;;;67.18;16.83;;;5.10;99.90;;;;;;5052907;28;20041;-74
2022/01/13 10:52:26;;;;;;;32.42;15.48;;;5.10;99.90;;;;;;5053387;28;20045;-77
2022/01/13 10:55:00;;;;;;;38.58;15.02;;;5.10;99.90;;;;;;5051513;28;20064;-76
2022/01/13 10:57:27;;;;;;;46.28;15.05;;;5.10;99.90;;;;;;5050614;28;20040;-74
2022/01/13 10:59:53;;;;;;;43.47;17.23;;;5.10;99.90;;;;;;5052900;28;20048;-73
2022/01/13 11:02:19;;;;;;;32.58;15.65;;;5.10;99.90;;;;;;5053137;28;20029;-74
2022/01/13 11:04:46;;;;;;;44.67;16.48;;;5.10;99.90;;;;;;5053417;28;20025;-74
2022/01/13 11:07:16;;;;;;;30.13;15.95;;;5.10;99.90;;;;;;5053178;28;20056;-74
2022/01/13 11:09:42;;;;;;;35.97;15.68;;;5.10;99.90;;;;;;5052576;28;20046;-74
2022/01/13 11:12:13;;;;;;;39.97;16.50;;;5.20;99.90;;;;;;5048832;28;20025;-77
2022/01/13 11:14:43;;;;;;;85.13;16.77;;;5.20;99.90;;;;;;5052683;28;20424;-77
2022/01/13 11:17:12;;;;;;;47.78;15.70;;;5.30;99.90;;;;;;5051859;28;20361;-74
2022/01/13 11:19:44;;;;;;;38.35;16.60;;;5.30;99.90;;;;;;5044790;28;20396;-73
2022/01/13 11:22:12;;;;;;;63.85;17.25;;;5.30;99.90;;;;;;5052220;28;20082;-73
2022/01/13 11:24:38;;;;;;;82.88;17.00;;;5.30;99.90;;;;;;5051452;28;20041;-75
2022/01/13 11:27:05;;;;;;;42.22;16.15;;;5.30;99.90;;;;;;5050911;28;20036;-73
2022/01/13 11:29:30;;;;;;;50.90;17.42;;;5.30;99.90;;;;;;5049005;28;20037;-73
2022/01/13 11:31:57;;;;;;;47.65;16.00;;;5.30;99.90;;;;;;5052997;28;20074;-73
2022/01/13 11:34:24;;;;;;;89.93;17.17;;;5.30;99.90;;;;;;5052628;28;20702;-72
2022/01/13 11:36:52;;;;;;;49.97;16.90;;;5.30;99.90;;;;;;5052599;28;20047;-72
2022/01/13 11:39:17;;;;;;;47.28;16.75;;;5.30;99.90;;;;;;5053169;28;20048;-72
2022/01/13 11:42:04;;;;;;;43.65;16.88;;;5.30;99.90;;;;;;5053083;28;20052;-72
2022/01/13 11:44:29;;;;;;;47.67;17.75;;;5.30;99.90;;;;;;5052726;28;20471;-72
2022/01/13 11:46:55;;;;;;;65.68;17.98;;;5.40;99.90;;;;;;5052210;28;20029;-72
2022/01/13 11:49:36;;;;;;;48.30;17.48;;;5.40;99.90;;;;;;5052565;28;20463;-72
2022/01/13 11:52:12;;;;;;;56.17;16.88;;;5.40;99.90;;;;;;5052606;28;20071;-72
2022/01/13 11:54:39;;;;;;;38.20;16.20;;;5.40;99.90;;;;;;5051788;28;20033;-72
2022/01/13 11:57:08;;;;;;;104.93;17.83;;;5.40;99.90;;;;;;5052456;28;20082;-73
2022/01/13 11:59:34;;;;;;;70.55;16.23;;;5.30;99.90;;;;;;5047166;28;20067;-73
2022/01/13 12:02:28;;;;;;;52.38;16.67;;;5.30;99.90;;;;;;5043036;28;20521;-73
2022/01/13 12:05:03;;;;;;;44.35;16.27;;;5.20;99.90;;;;;;5032934;28;20091;-72
2022/01/13 12:07:49;;;;;;;40.58;16.25;;;5.20;99.90;;;;;;5033573;28;20033;-72
2022/01/13 12:10:20;;;;;;;41.42;16.13;;;5.10;99.90;;;;;;5033688;28;20025;-73
2022/01/13 12:12:46;;;;;;;37.13;16.67;;;5.10;99.90;;;;;;5032693;28;20032;-72
2022/01/13 12:15:19;;;;;;;33.72;16.98;;;5.10;99.90;;;;;;5033406;28;20029;-72
2022/01/13 12:17:59;;;;;;;35.20;16.70;;;5.10;99.90;;;;;;5033103;28;20116;-72
2022/01/13 12:20:37;;;;;;;38.72;15.82;;;5.10;99.90;;;;;;5034115;28;20032;-73
2022/01/13 12:23:16;;;;;;;39.75;16.75;;;5.10;99.90;;;;;;5032428;28;20480;-72
2022/01/13 12:25:43;;;;;;;56.05;16.98;;;5.10;99.90;;;;;;5053384;28;20029;-72
2022/01/13 12:28:15;;;;;;;46.97;16.85;;;5.20;99.90;;;;;;5053215;28;20116;-71
2022/01/13 12:30:41;;;;;;;38.40;16.52;;;5.20;99.90;;;;;;5053095;28;20108;-78
2022/01/13 12:33:08;;;;;;;44.38;16.77;;;5.20;99.90;;;;;;5053572;28;20104;-77
2022/01/13 12:35:34;;;;;;;68.70;16.45;;;5.20;99.90;;;;;;5053406;28;20559;-80
2022/01/13 12:38:15;;;;;;;45.65;15.90;;;5.20;99.90;;;;;;5053350;28;20056;-80
2022/01/13 12:41:01;;;;;;;38.13;16.23;;;5.30;99.90;;;;;;5053151;28;20025;-80
2022/01/13 12:46:18;;;;;;;33.97;15.27;;;5.30;99.90;;;;;;5053458;28;20480;-81
2022/01/13 12:48:49;;;;;;;54.78;15.35;;;5.30;99.90;;;;;;5053459;28;20037;-83
2022/01/13 12:51:16;;;;;;;66.55;15.50;;;5.20;99.90;;;;;;5053309;28;20480;-79
2022/01/13 12:53:43;;;;;;;60.30;16.73;;;5.20;99.90;;;;;;5052069;28;20029;-81
2022/01/13 12:56:12;;;;;;;53.30;15.55;;;5.20;99.90;;;;;;5033429;28;20105;-82
2022/01/13 12:58:48;;;;;;;42.47;15.50;;;5.20;99.90;;;;;;5033321;28;20036;-80
2022/01/13 13:01:16;;;;;;;42.25;14.90;;;5.10;99.90;;;;;;5033080;28;20084;-80
2022/01/13 13:03:42;;;;;;;62.83;16.13;;;5.10;99.90;;;;;;5032884;28;20029;-78